Time;durP1;ratioP1;P1;durP2;ratioP2;P2;SDS_P1;SDS_P2;PMS_P1;PMS_P2;Temp;Humidity;BMP_temperature;BMP_pressure;BME280_temperature;BME280_humidity;BME280_pressure;Samples;Min_cycle;Max_cycle;Signal;HPM_P1;HPM_P2
2023/08/24 00:00:20;;;;;;;10.75;4.75;;;18.30;99.90;;;;;;10168037;29;20668;-86
2023/08/24 00:05:23;;;;;;;3.15;2.88;;;18.10;99.90;;;;;;10163191;29;20691;-85
2023/08/24 00:10:26;;;;;;;7.57;4.15;;;18.00;99.90;;;;;;10149744;29;20295;-85
2023/08/24 00:15:29;;;;;;;4.07;3.70;;;18.00;99.90;;;;;;10169445;29;20396;-86
2023/08/24 00:20:33;;;;;;;8.77;4.22;;;18.00;99.90;;;;;;10152929;29;20235;-85
2023/08/24 00:25:35;;;;;;;5.05;2.92;;;17.90;99.90;;;;;;10168132;29;20267;-86
2023/08/24 00:30:38;;;;;;;6.57;2.70;;;18.00;99.90;;;;;;10168105;29;20321;-85
2023/08/24 00:35:40;;;;;;;4.00;2.38;;;17.80;99.90;;;;;;10143380;29;20267;-85
2023/08/24 00:40:43;;;;;;;4.03;3.40;;;17.80;99.90;;;;;;10158021;29;20243;-85
2023/08/24 00:45:46;;;;;;;3.33;3.03;;;17.80;99.90;;;;;;10153090;29;20251;-85
2023/08/24 00:50:49;;;;;;;3.90;2.83;;;17.70;99.90;;;;;;10141301;29;20652;-86
2023/08/24 00:55:55;;;;;;;6.55;3.63;;;17.80;99.90;;;;;;10140758;29;20260;-85
2023/08/24 01:00:59;;;;;;;3.67;2.90;;;17.70;99.90;;;;;;10134719;29;20240;-85
2023/08/24 01:06:02;;;;;;;2.55;2.35;;;17.50;99.90;;;;;;10167672;29;20345;-86
2023/08/24 01:11:20;;;;;;;2.92;2.42;;;17.60;99.90;;;;;;10151183;29;20239;-86
2023/08/24 01:16:29;;;;;;;5.13;3.05;;;17.60;99.90;;;;;;10149312;29;20689;-86
2023/08/24 01:21:32;;;;;;;3.58;3.28;;;17.50;99.90;;;;;;10149583;29;20263;-85
2023/08/24 01:26:35;;;;;;;4.28;2.80;;;17.20;99.90;;;;;;10162382;29;20233;-85
2023/08/24 01:31:38;;;;;;;4.07;2.85;;;17.20;99.90;;;;;;10167601;29;20744;-85
2023/08/24 01:36:40;;;;;;;5.80;3.42;;;17.10;99.90;;;;;;10150707;29;20274;-85
2023/08/24 01:41:48;;;;;;;3.20;2.90;;;17.00;99.90;;;;;;10136818;29;20817;-85
2023/08/24 01:46:52;;;;;;;8.52;4.28;;;17.10;99.90;;;;;;10144625;29;20303;-86
2023/08/24 01:51:55;;;;;;;4.50;3.90;;;17.00;99.90;;;;;;10150863;29;20736;-85
2023/08/24 01:56:58;;;;;;;4.32;2.80;;;16.90;99.90;;;;;;10165464;29;20267;-86
2023/08/24 02:02:01;;;;;;;7.15;4.15;;;16.90;99.90;;;;;;10147176;29;20239;-86
2023/08/24 02:07:03;;;;;;;3.05;2.72;;;16.80;99.90;;;;;;10155273;29;20263;-86
2023/08/24 02:12:06;;;;;;;14.57;3.53;;;16.70;99.90;;;;;;10167396;29;20640;-86
2023/08/24 02:17:09;;;;;;;4.40;3.35;;;17.00;99.90;;;;;;10132142;29;20271;-85
2023/08/24 02:22:11;;;;;;;6.05;3.42;;;16.90;99.90;;;;;;10148994;29;20240;-86
2023/08/24 02:27:14;;;;;;;3.90;3.20;;;16.90;99.90;;;;;;10129283;29;20646;-86
2023/08/24 02:32:16;;;;;;;4.07;2.28;;;16.70;99.90;;;;;;10160190;29;20275;-86
2023/08/24 02:37:19;;;;;;;3.05;2.72;;;16.70;99.90;;;;;;10140212;29;20271;-86
2023/08/24 02:42:21;;;;;;;4.07;3.13;;;16.70;99.90;;;;;;10139364;29;20295;-85
2023/08/24 02:47:24;;;;;;;3.03;2.83;;;16.70;99.90;;;;;;10139682;29;20698;-85
2023/08/24 02:52:27;;;;;;;4.90;4.40;;;16.50;99.90;;;;;;10148747;29;20263;-86
2023/08/24 02:57:30;;;;;;;6.15;3.28;;;16.40;99.90;;;;;;10143936;29;20263;-85
2023/08/24 03:02:32;;;;;;;4.22;3.80;;;16.40;99.90;;;;;;10135996;29;20235;-85
2023/08/24 03:07:35;;;;;;;4.18;3.78;;;16.20;99.90;;;;;;10135331;29;20227;-85
2023/08/24 03:12:37;;;;;;;2.75;2.45;;;16.10;99.90;;;;;;10153261;29;20690;-85
2023/08/24 03:17:41;;;;;;;5.90;3.30;;;16.10;99.90;;;;;;10138536;29;20323;-85
2023/08/24 03:22:43;;;;;;;3.67;3.35;;;16.10;99.90;;;;;;10151724;29;20228;-85
2023/08/24 03:27:47;;;;;;;4.65;3.70;;;16.00;99.90;;;;;;10134889;29;20633;-85
2023/08/24 03:32:50;;;;;;;3.92;3.22;;;15.90;99.90;;;;;;10132597;29;20294;-85
2023/08/24 03:37:53;;;;;;;3.95;3.55;;;15.80;99.90;;;;;;10145455;29;20298;-85
2023/08/24 03:42:55;;;;;;;3.85;3.35;;;15.80;99.90;;;;;;10154377;29;20243;-85
2023/08/24 03:47:58;;;;;;;3.35;2.88;;;15.80;99.90;;;;;;10140370;29;20240;-85
2023/08/24 03:53:02;;;;;;;3.78;3.47;;;15.80;99.90;;;;;;10154328;29;20239;-85
2023/08/24 03:58:04;;;;;;;4.60;3.08;;;15.60;99.90;;;;;;10161133;29;20326;-85
2023/08/24 04:03:07;;;;;;;2.85;2.65;;;15.80;99.90;;;;;;10138995;29;20283;-85
2023/08/24 04:08:10;;;;;;;3.17;2.88;;;16.00;99.90;;;;;;10123351;29;20252;-85
2023/08/24 04:13:12;;;;;;;3.22;2.92;;;16.20;99.90;;;;;;10136300;29;20240;-85
2023/08/24 04:18:15;;;;;;;2.60;2.40;;;16.60;99.90;;;;;;10152115;29;20259;-85
2023/08/24 04:23:23;;;;;;;4.68;4.18;;;16.60;99.90;;;;;;10126120;29;20357;-85
2023/08/24 04:28:25;;;;;;;2.92;2.72;;;16.40;99.90;;;;;;10169064;29;20235;-85
2023/08/24 04:33:28;;;;;;;4.45;3.67;;;16.60;99.90;;;;;;10169730;29;20298;-85
2023/08/24 04:38:30;;;;;;;6.13;4.28;;;17.10;99.90;;;;;;10170042;29;20342;-85
2023/08/24 04:43:34;;;;;;;10.02;4.43;;;17.20;99.90;;;;;;10139595;29;20319;-85
2023/08/24 04:48:36;;;;;;;4.95;3.20;;;17.40;99.90;;;;;;10156050;29;20247;-85
2023/08/24 04:53:39;;;;;;;5.47;3.22;;;17.40;99.90;;;;;;10157299;29;20272;-85
2023/08/24 04:58:53;;;;;;;4.78;3.22;;;17.70;99.90;;;;;;10165701;29;20251;-85
2023/08/24 05:03:56;;;;;;;7.82;6.97;;;18.00;99.90;;;;;;10150571;29;20296;-85
2023/08/24 05:08:58;;;;;;;12.40;9.20;;;18.20;99.90;;;;;;10162300;29;20678;-85
2023/08/24 05:14:01;;;;;;;12.40;9.27;;;18.20;99.90;;;;;;10156505;29;20256;-87
2023/08/24 05:19:03;;;;;;;14.30;7.38;;;18.20;99.90;;;;;;10148743;29;20259;-86
2023/08/24 05:24:06;;;;;;;6.90;5.30;;;18.30;99.90;;;;;;10142028;29;20231;-86
2023/08/24 05:29:09;;;;;;;4.38;3.53;;;18.50;99.90;;;;;;10134710;29;20244;-86
2023/08/24 05:34:11;;;;;;;8.52;4.90;;;18.90;99.90;;;;;;10130405;29;20271;-86
2023/08/24 05:39:14;;;;;;;8.57;5.07;;;19.10;99.90;;;;;;10139783;29;20358;-86
2023/08/24 05:44:17;;;;;;;6.20;3.47;;;19.00;99.90;;;;;;10120961;29;20267;-85
2023/08/24 05:49:19;;;;;;;7.22;4.53;;;18.90;99.90;;;;;;10169497;29;20231;-86
2023/08/24 05:54:22;;;;;;;6.40;4.20;;;19.30;99.90;;;;;;10152411;29;20242;-86
2023/08/24 05:59:24;;;;;;;10.30;4.88;;;19.30;99.90;;;;;;10150378;29;20259;-85
2023/08/24 06:04:27;;;;;;;12.52;5.82;;;19.10;99.90;;;;;;10152068;29;20247;-86
2023/08/24 06:09:29;;;;;;;7.47;4.85;;;19.00;99.90;;;;;;10169234;29;20239;-86
2023/08/24 06:14:32;;;;;;;5.00;4.47;;;19.10;99.90;;;;;;10167716;29;20247;-86
2023/08/24 06:19:34;;;;;;;8.40;4.75;;;19.10;99.90;;;;;;10150921;29;20311;-86
2023/08/24 06:24:37;;;;;;;7.13;3.95;;;19.30;99.90;;;;;;10168318;29;20231;-86
2023/08/24 06:29:42;;;;;;;9.88;4.55;;;19.40;99.90;;;;;;10168271;29;20256;-86
2023/08/24 06:34:45;;;;;;;7.20;4.15;;;19.40;99.90;;;;;;10151310;29;20263;-86
2023/08/24 06:39:48;;;;;;;6.45;3.08;;;19.70;99.90;;;;;;10167362;29;20250;-85
2023/08/24 06:44:51;;;;;;;3.75;2.65;;;20.00;99.90;;;;;;10167907;29;20326;-86
2023/08/24 06:49:53;;;;;;;4.22;2.22;;;20.10;99.90;;;;;;10167072;29;20246;-86
2023/08/24 06:54:56;;;;;;;7.75;2.85;;;20.30;99.90;;;;;;10169765;29;20235;-86
2023/08/24 07:00:00;;;;;;;11.35;3.65;;;20.40;99.90;;;;;;10156355;29;20271;-85
2023/08/24 07:05:04;;;;;;;4.93;2.72;;;20.50;99.90;;;;;;10175524;29;20227;-86
2023/08/24 07:10:07;;;;;;;5.68;3.88;;;20.60;99.90;;;;;;10170093;29;20262;-85
2023/08/24 07:15:11;;;;;;;4.72;4.20;;;20.80;99.90;;;;;;10171015;29;20231;-85
2023/08/24 07:20:14;;;;;;;9.77;3.78;;;21.00;99.90;;;;;;10174562;29;20255;-85
2023/08/24 07:25:17;;;;;;;10.25;2.97;;;21.10;98.50;;;;;;10174440;29;20242;-85
2023/08/24 07:30:20;;;;;;;5.00;2.90;;;21.40;99.40;;;;;;10173917;29;20250;-85
2023/08/24 07:35:35;;;;;;;10.18;2.88;;;21.60;98.60;;;;;;10125036;29;20288;-85
2023/08/24 07:40:38;;;;;;;3.03;2.72;;;21.90;95.10;;;;;;10135499;29;20256;-85
2023/08/24 07:45:40;;;;;;;6.13;2.78;;;22.30;96.90;;;;;;10134490;29;20290;-85
2023/08/24 07:50:43;;;;;;;2.95;1.98;;;22.30;93.80;;;;;;10135002;29;20243;-85
2023/08/24 07:55:46;;;;;;;2.70;2.50;;;22.40;80.70;;;;;;10168292;29;20235;-85
2023/08/24 08:00:52;;;;;;;4.22;2.00;;;22.70;92.60;;;;;;10172617;29;20314;-85
2023/08/24 08:05:55;;;;;;;2.53;2.17;;;22.90;88.90;;;;;;10170859;29;20307;-85
2023/08/24 08:11:02;;;;;;;2.47;1.95;;;23.20;92.30;;;;;;10169262;29;20239;-85
2023/08/24 08:16:06;;;;;;;5.35;1.92;;;23.50;90.00;;;;;;10145081;29;20265;-85
2023/08/24 08:21:11;;;;;;;3.17;1.60;;;23.90;90.00;;;;;;10171879;29;20259;-85
2023/08/24 08:26:14;;;;;;;2.45;2.25;;;23.90;74.20;;;;;;10167376;29;20239;-85
2023/08/24 08:31:16;;;;;;;1.73;1.33;;;23.90;72.60;;;;;;10171212;29;20239;-85
2023/08/24 08:36:23;;;;;;;2.40;1.27;;;23.90;61.10;;;;;;10170328;29;20279;-85
2023/08/24 08:41:33;;;;;;;2.53;2.10;;;23.90;65.00;;;;;;10153808;29;20263;-85
2023/08/24 08:46:35;;;;;;;1.65;1.48;;;24.10;64.70;;;;;;10161220;29;20296;-85
2023/08/24 08:51:39;;;;;;;2.88;2.22;;;24.20;71.10;;;;;;10131934;29;20244;-85
2023/08/24 08:56:42;;;;;;;4.80;2.15;;;24.30;72.90;;;;;;10166015;29;20235;-85
2023/08/24 09:01:47;;;;;;;2.85;1.35;;;24.50;75.20;;;;;;10157329;29;20308;-85
2023/08/24 09:06:50;;;;;;;3.35;2.22;;;24.60;63.50;;;;;;10149431;29;20235;-84
2023/08/24 09:11:53;;;;;;;3.13;2.40;;;24.50;62.20;;;;;;10168617;29;20243;-85
2023/08/24 09:16:56;;;;;;;2.78;1.70;;;24.50;58.80;;;;;;10158606;29;20711;-85
2023/08/24 09:22:00;;;;;;;2.22;2.03;;;24.60;54.00;;;;;;10129839;29;20256;-85
2023/08/24 09:27:16;;;;;;;2.90;1.75;;;24.70;65.00;;;;;;10128968;29;20239;-85
2023/08/24 09:32:23;;;;;;;2.13;1.80;;;24.50;56.30;;;;;;10131578;29;20631;-85
2023/08/24 09:37:26;;;;;;;2.30;2.10;;;24.60;57.90;;;;;;10128300;29;20291;-85
2023/08/24 09:42:28;;;;;;;5.03;2.72;;;24.90;74.40;;;;;;10113751;29;20243;-85
2023/08/24 09:47:31;;;;;;;10.00;2.45;;;25.00;64.50;;;;;;10129522;29;20240;-85
2023/08/24 09:52:37;;;;;;;2.22;1.67;;;25.00;55.10;;;;;;10145967;29;20230;-85
2023/08/24 09:57:40;;;;;;;5.72;2.00;;;24.80;59.40;;;;;;10167643;29;20251;-85
2023/08/24 10:02:50;;;;;;;5.68;2.20;;;25.00;65.70;;;;;;10166459;29;20242;-85
2023/08/24 10:07:56;;;;;;;5.38;1.70;;;25.10;68.90;;;;;;10166604;29;20247;-85
2023/08/24 10:13:08;;;;;;;5.15;1.83;;;25.00;48.30;;;;;;10165232;29;20266;-85
2023/08/24 10:18:10;;;;;;;2.15;1.88;;;25.00;49.60;;;;;;10167444;29;20255;-85
2023/08/24 10:23:15;;;;;;;2.08;1.88;;;25.10;65.20;;;;;;10166944;29;20306;-85
2023/08/24 10:28:19;;;;;;;2.67;1.90;;;25.10;63.40;;;;;;10165816;29;21055;-85
2023/08/24 10:33:23;;;;;;;2.80;2.10;;;25.30;63.00;;;;;;10165044;29;20325;-84
2023/08/24 10:38:26;;;;;;;2.05;1.95;;;25.40;66.40;;;;;;10165853;29;21040;-85
2023/08/24 10:43:29;;;;;;;2.40;2.17;;;25.40;65.70;;;;;;10165820;29;20243;-85
2023/08/24 10:48:58;;;;;;;5.70;2.42;;;25.50;63.20;;;;;;10160959;29;20268;-85
2023/08/24 10:54:04;;;;;;;2.22;2.03;;;25.60;56.30;;;;;;10124312;29;20370;-85
2023/08/24 10:59:15;;;;;;;5.10;2.63;;;25.70;65.70;;;;;;10155078;29;20305;-84
2023/08/24 11:04:17;;;;;;;3.75;2.22;;;25.80;51.00;;;;;;10110239;29;20236;-86
2023/08/24 11:09:20;;;;;;;3.75;2.20;;;26.00;54.40;;;;;;10110011;29;21046;-86
2023/08/24 11:14:25;;;;;;;2.95;2.08;;;26.10;56.40;;;;;;10126217;29;20694;-86
2023/08/24 11:19:30;;;;;;;3.30;1.83;;;26.20;44.10;;;;;;10094611;29;20263;-86
2023/08/24 11:24:35;;;;;;;2.35;2.15;;;26.30;46.10;;;;;;10095083;29;20244;-86
2023/08/24 11:29:38;;;;;;;4.10;2.33;;;26.50;54.60;;;;;;10126021;29;20236;-86
2023/08/24 11:34:41;;;;;;;2.65;2.00;;;26.40;45.10;;;;;;10095254;29;20665;-86
2023/08/24 11:39:46;;;;;;;3.03;2.38;;;26.60;48.80;;;;;;10129857;29;20333;-85
2023/08/24 11:44:49;;;;;;;2.55;1.85;;;26.40;46.60;;;;;;10171398;29;20247;-85
2023/08/24 11:49:52;;;;;;;2.55;2.35;;;26.40;45.00;;;;;;10147362;29;20232;-85
2023/08/24 11:54:54;;;;;;;3.72;1.55;;;26.50;45.20;;;;;;10132928;29;20312;-85
2023/08/24 11:59:57;;;;;;;3.70;1.02;;;26.50;42.70;;;;;;10148897;29;20813;-85
2023/08/24 12:05:01;;;;;;;3.45;1.92;;;26.60;45.30;;;;;;10171902;29;20286;-84
2023/08/24 12:10:04;;;;;;;2.80;2.00;;;26.80;47.60;;;;;;10154964;29;20235;-84
2023/08/24 12:15:07;;;;;;;3.03;1.98;;;26.90;37.50;;;;;;10154326;29;20302;-85
2023/08/24 12:20:18;;;;;;;3.35;1.70;;;27.10;39.70;;;;;;10136485;29;20268;-85
2023/08/24 12:25:25;;;;;;;3.13;1.40;;;27.20;45.20;;;;;;9443658;29;10000703;-85
2023/08/24 12:30:27;;;;;;;2.15;1.75;;;27.20;45.70;;;;;;10167229;29;20243;-85
2023/08/24 12:35:30;;;;;;;1.90;1.67;;;27.10;44.00;;;;;;10150409;29;20271;-85
2023/08/24 12:40:33;;;;;;;1.40;1.30;;;27.10;46.60;;;;;;10167762;29;20258;-85
2023/08/24 12:45:37;;;;;;;2.78;1.83;;;27.10;47.30;;;;;;10166941;29;20294;-85
2023/08/24 12:50:40;;;;;;;2.35;1.60;;;27.00;41.60;;;;;;10154362;29;20235;-85
2023/08/24 12:55:42;;;;;;;2.45;1.48;;;26.90;45.50;;;;;;10165019;29;20788;-85
2023/08/24 13:00:45;;;;;;;2.45;1.77;;;26.90;50.10;;;;;;10148887;29;20684;-85
2023/08/24 13:05:48;;;;;;;1.55;1.33;;;26.90;44.20;;;;;;10167201;29;20971;-86
2023/08/24 13:10:51;;;;;;;1.27;1.17;;;26.90;49.90;;;;;;10150104;29;20247;-86
2023/08/24 13:15:54;;;;;;;1.17;1.08;;;26.90;48.40;;;;;;10133297;29;20248;-86
2023/08/24 13:20:59;;;;;;;1.95;1.70;;;27.10;48.60;;;;;;10124318;29;20722;-86
2023/08/24 13:26:01;;;;;;;2.08;1.60;;;27.20;47.60;;;;;;10149664;29;20243;-85
2023/08/24 13:31:04;;;;;;;1.98;1.80;;;27.30;45.30;;;;;;10157334;29;20238;-85
2023/08/24 13:36:07;;;;;;;1.67;1.40;;;27.40;49.10;;;;;;10162599;29;20263;-85
2023/08/24 13:41:09;;;;;;;2.28;1.65;;;27.50;47.60;;;;;;10156535;29;20266;-86
2023/08/24 13:46:12;;;;;;;2.97;1.77;;;27.50;43.20;;;;;;10158484;29;20247;-86
2023/08/24 13:51:14;;;;;;;2.13;1.42;;;27.50;47.80;;;;;;10125910;29;20243;-86
2023/08/24 13:56:17;;;;;;;2.13;1.60;;;27.40;49.90;;;;;;10128579;29;20247;-86
2023/08/24 14:01:20;;;;;;;3.47;2.17;;;27.40;49.50;;;;;;10135523;29;20260;-86
2023/08/24 14:06:23;;;;;;;1.75;1.63;;;27.30;43.30;;;;;;10147289;29;20239;-86
2023/08/24 14:11:25;;;;;;;1.42;1.33;;;27.20;50.60;;;;;;10149262;29;20298;-86
2023/08/24 14:16:28;;;;;;;4.90;2.38;;;27.20;49.90;;;;;;10150598;29;20307;-86
2023/08/24 14:21:31;;;;;;;2.42;2.03;;;27.10;45.80;;;;;;10136799;29;20856;-86
2023/08/24 14:26:46;;;;;;;1.73;1.50;;;26.70;44.80;;;;;;10148683;29;20246;-86
2023/08/24 14:31:49;;;;;;;1.83;1.60;;;26.70;52.50;;;;;;10137234;29;20251;-86
2023/08/24 14:36:51;;;;;;;1.40;1.30;;;26.70;52.60;;;;;;10123538;29;20274;-85
2023/08/24 14:41:54;;;;;;;2.92;1.77;;;26.70;55.90;;;;;;10155841;29;20692;-86
2023/08/24 14:46:56;;;;;;;1.98;1.80;;;26.60;51.00;;;;;;10133833;29;20287;-85
2023/08/24 14:51:59;;;;;;;2.00;1.80;;;26.40;50.40;;;;;;10132076;29;20239;-85
2023/08/24 14:57:02;;;;;;;2.65;2.20;;;26.40;50.10;;;;;;10163020;29;20235;-85
2023/08/24 15:02:05;;;;;;;2.25;2.00;;;26.40;39.00;;;;;;10146203;29;20787;-85
2023/08/24 15:07:07;;;;;;;2.75;1.65;;;26.50;47.30;;;;;;10145170;29;20286;-85
2023/08/24 15:12:10;;;;;;;3.55;2.03;;;26.70;50.10;;;;;;10165300;29;20255;-86
2023/08/24 15:17:12;;;;;;;4.00;2.20;;;26.70;40.00;;;;;;10171878;29;20690;-87
2023/08/24 15:22:15;;;;;;;2.38;2.17;;;26.70;37.50;;;;;;10173529;29;20306;-87
2023/08/24 15:27:18;;;;;;;3.10;2.28;;;26.70;37.60;;;;;;10172482;29;20315;-87
2023/08/24 15:32:21;;;;;;;2.63;2.42;;;26.70;36.80;;;;;;10130100;29;20232;-87
2023/08/24 15:37:23;;;;;;;2.53;2.33;;;26.60;36.90;;;;;;10159541;29;20729;-87
2023/08/24 15:42:26;;;;;;;6.70;2.53;;;26.60;37.90;;;;;;9816160;29;9999732;-87
2023/08/24 15:47:28;;;;;;;4.63;2.30;;;26.50;39.10;;;;;;10159843;29;20268;-87
2023/08/24 15:52:31;;;;;;;2.30;2.08;;;26.30;38.60;;;;;;10148533;29;20684;-87
2023/08/24 15:57:33;;;;;;;3.85;2.00;;;26.20;40.30;;;;;;10144648;29;20660;-87
2023/08/24 16:02:39;;;;;;;3.33;2.30;;;26.20;42.60;;;;;;10166311;29;20259;-87
2023/08/24 16:07:42;;;;;;;4.88;2.33;;;26.10;42.90;;;;;;10157392;29;20264;-86
2023/08/24 16:12:44;;;;;;;2.80;2.50;;;26.00;42.70;;;;;;10181005;29;20244;-86
2023/08/24 16:17:47;;;;;;;4.32;2.58;;;26.10;43.60;;;;;;10164977;29;20244;-85
2023/08/24 16:22:50;;;;;;;93.35;11.77;;;26.10;43.90;;;;;;10144129;29;20311;-83
2023/08/24 16:27:52;;;;;;;52.17;7.68;;;26.10;44.20;;;;;;10167407;29;20665;-83
2023/08/24 16:32:55;;;;;;;18.65;3.80;;;26.10;46.70;;;;;;10178503;29;20246;-83
2023/08/24 16:37:58;;;;;;;10.25;3.55;;;26.10;44.80;;;;;;10149505;29;20258;-84
2023/08/24 16:43:00;;;;;;;29.60;6.53;;;26.10;45.40;;;;;;10156628;29;20263;-84
2023/08/24 16:48:03;;;;;;;13.10;4.25;;;26.10;49.60;;;;;;10159454;29;20272;-84
2023/08/24 16:53:06;;;;;;;10.13;3.28;;;26.20;49.90;;;;;;10170153;29;20698;-84
2023/08/24 16:58:08;;;;;;;8.48;2.72;;;26.20;47.80;;;;;;10158237;29;20263;-84
2023/08/24 17:03:11;;;;;;;5.70;2.67;;;26.00;49.70;;;;;;10138969;29;20318;-84
2023/08/24 17:08:15;;;;;;;2.47;2.20;;;25.70;49.60;;;;;;10162916;29;20231;-84
2023/08/24 17:13:18;;;;;;;3.63;2.40;;;25.40;49.60;;;;;;10174686;29;20240;-84
2023/08/24 17:18:20;;;;;;;6.55;3.00;;;25.00;50.80;;;;;;10158279;29;20235;-84
2023/08/24 17:23:23;;;;;;;4.18;2.30;;;24.60;53.70;;;;;;10153976;29;20722;-84
2023/08/24 17:28:25;;;;;;;3.45;2.38;;;24.30;57.00;;;;;;10157185;29;20236;-84
2023/08/24 17:33:28;;;;;;;3.90;2.50;;;23.90;58.40;;;;;;10130928;29;20765;-84
2023/08/24 17:38:30;;;;;;;3.85;2.28;;;23.40;59.40;;;;;;10148804;29;20263;-85
2023/08/24 17:43:40;;;;;;;3.72;2.25;;;23.00;69.90;;;;;;10132812;29;20718;-84
2023/08/24 17:48:42;;;;;;;7.97;2.67;;;22.50;71.30;;;;;;10141808;29;20247;-84
2023/08/24 17:53:45;;;;;;;5.18;3.00;;;22.20;84.30;;;;;;10146507;29;20688;-84
2023/08/24 17:58:48;;;;;;;5.50;2.80;;;22.20;90.00;;;;;;10160061;29;20279;-84
2023/08/24 18:03:50;;;;;;;13.27;3.58;;;22.20;92.80;;;;;;9811466;29;10000049;-84
2023/08/24 18:08:53;;;;;;;6.07;2.65;;;22.10;93.80;;;;;;10158526;29;20615;-85
2023/08/24 18:13:57;;;;;;;6.40;2.92;;;21.90;94.80;;;;;;10165040;29;20232;-85
2023/08/24 18:19:00;;;;;;;7.35;3.05;;;21.80;95.10;;;;;;10148372;29;20286;-85
2023/08/24 18:24:03;;;;;;;8.15;3.35;;;21.60;96.70;;;;;;10163386;29;20392;-85
2023/08/24 18:29:06;;;;;;;19.58;2.97;;;21.40;97.50;;;;;;10147269;29;20707;-85
2023/08/24 18:34:08;;;;;;;7.10;2.90;;;21.30;98.00;;;;;;10159641;29;20270;-85
2023/08/24 18:39:11;;;;;;;9.82;3.42;;;21.20;98.50;;;;;;10125072;29;20228;-86
2023/08/24 18:44:13;;;;;;;16.00;3.75;;;21.00;99.30;;;;;;10137679;29;20248;-85
2023/08/24 18:49:18;;;;;;;17.90;4.55;;;20.80;99.90;;;;;;10125534;29;20244;-85
2023/08/24 18:54:21;;;;;;;21.45;4.72;;;20.60;99.90;;;;;;10157243;29;20235;-85
2023/08/24 18:59:24;;;;;;;14.93;3.95;;;20.50;99.90;;;;;;10155609;29;20322;-85
2023/08/24 19:04:27;;;;;;;8.73;4.40;;;20.40;99.90;;;;;;10171659;29;20960;-85
2023/08/24 19:09:30;;;;;;;18.20;3.13;;;20.30;99.90;;;;;;10173262;29;20239;-85
2023/08/24 19:14:35;;;;;;;13.35;3.95;;;20.60;99.90;;;;;;10162245;29;20243;-85
2023/08/24 19:19:38;;;;;;;28.08;5.18;;;20.50;99.90;;;;;;10137554;29;20251;-85
2023/08/24 19:24:40;;;;;;;32.20;6.18;;;20.30;99.90;;;;;;10150562;29;20388;-85
2023/08/24 19:29:43;;;;;;;15.05;3.53;;;20.30;99.90;;;;;;10162306;29;20235;-84
2023/08/24 19:34:46;;;;;;;17.75;4.88;;;20.40;99.90;;;;;;10130447;29;20259;-85
2023/08/24 19:39:49;;;;;;;11.45;3.97;;;20.20;99.90;;;;;;10167804;29;20696;-85
2023/08/24 19:44:51;;;;;;;9.05;3.60;;;20.20;99.90;;;;;;10175316;29;20227;-86
2023/08/24 19:49:54;;;;;;;16.88;4.63;;;20.00;99.90;;;;;;10159191;29;20240;-86
2023/08/24 19:54:56;;;;;;;5.90;3.15;;;19.80;99.90;;;;;;10157243;29;20675;-86
2023/08/24 19:59:59;;;;;;;7.63;3.50;;;19.80;99.90;;;;;;10171633;29;20239;-86
2023/08/24 20:05:02;;;;;;;9.45;4.70;;;19.70;99.90;;;;;;10157601;29;20240;-86
2023/08/24 20:10:07;;;;;;;5.57;3.15;;;19.60;99.90;;;;;;10152827;29;20292;-87
2023/08/24 20:15:11;;;;;;;10.52;4.18;;;19.50;99.90;;;;;;10171437;29;20271;-86
2023/08/24 20:20:15;;;;;;;16.70;5.35;;;19.30;99.90;;;;;;10173916;29;20259;-86
2023/08/24 20:25:18;;;;;;;11.65;4.97;;;19.30;99.90;;;;;;10157989;29;20228;-86
2023/08/24 20:30:20;;;;;;;12.35;4.57;;;19.10;99.90;;;;;;10135495;29;20236;-86
2023/08/24 20:35:23;;;;;;;15.13;5.75;;;19.00;99.90;;;;;;10156735;29;20239;-85
2023/08/24 20:40:26;;;;;;;8.98;5.60;;;18.80;99.90;;;;;;10152439;29;20308;-85
2023/08/24 20:45:29;;;;;;;6.20;3.65;;;18.70;99.90;;;;;;10154391;29;20196;-86
2023/08/24 20:50:32;;;;;;;15.63;5.05;;;18.30;99.90;;;;;;10171983;29;20207;-86
2023/08/24 20:55:34;;;;;;;11.63;5.20;;;18.30;99.90;;;;;;10158542;29;20252;-86
2023/08/24 21:00:37;;;;;;;15.88;4.90;;;18.20;99.90;;;;;;10151091;29;20652;-86
2023/08/24 21:05:40;;;;;;;12.27;4.93;;;18.20;99.90;;;;;;10155932;29;20199;-86
2023/08/24 21:10:42;;;;;;;6.75;3.75;;;18.20;99.90;;;;;;10181550;29;20213;-85
2023/08/24 21:15:45;;;;;;;6.82;4.45;;;18.20;99.90;;;;;;10216996;29;20263;-84
2023/08/24 21:20:53;;;;;;;7.28;5.03;;;18.50;99.90;;;;;;10218874;29;20235;-85
2023/08/24 21:25:56;;;;;;;11.82;5.55;;;18.60;99.90;;;;;;10191017;29;20188;-85
2023/08/24 21:31:02;;;;;;;12.02;5.85;;;18.50;99.90;;;;;;10191791;29;20208;-85
2023/08/24 21:36:05;;;;;;;10.23;5.75;;;18.50;99.90;;;;;;10204050;29;20236;-85
2023/08/24 21:41:08;;;;;;;10.35;5.88;;;18.20;99.90;;;;;;10219545;29;20204;-84
2023/08/24 21:46:11;;;;;;;11.50;4.88;;;18.10;99.90;;;;;;10219279;29;20191;-85
2023/08/24 21:51:13;;;;;;;7.90;4.32;;;18.40;99.90;;;;;;10176084;29;20233;-85
2023/08/24 21:56:16;;;;;;;6.47;3.22;;;18.50;99.90;;;;;;10165209;29;20193;-84
2023/08/24 22:01:19;;;;;;;4.00;3.60;;;18.50;99.90;;;;;;10208455;29;20256;-85
2023/08/24 22:06:22;;;;;;;13.18;5.43;;;18.50;99.90;;;;;;10201671;29;20195;-85
2023/08/24 22:11:24;;;;;;;5.90;4.82;;;18.40;99.90;;;;;;10169614;29;20204;-86
2023/08/24 22:16:28;;;;;;;7.75;4.85;;;18.40;99.90;;;;;;10206698;29;20224;-86
2023/08/24 22:21:31;;;;;;;3.30;3.00;;;18.50;99.90;;;;;;10162678;29;20240;-85
2023/08/24 22:26:34;;;;;;;2.80;2.50;;;18.50;99.90;;;;;;10175390;29;20196;-85
2023/08/24 22:31:36;;;;;;;3.22;2.83;;;18.60;99.90;;;;;;10175076;29;20208;-85
2023/08/24 22:36:39;;;;;;;6.85;4.88;;;18.90;99.90;;;;;;10208209;29;20247;-85
2023/08/24 22:41:41;;;;;;;7.32;5.25;;;19.00;99.90;;;;;;10183672;29;20220;-84
2023/08/24 22:46:44;;;;;;;6.28;4.45;;;18.50;99.90;;;;;;10174728;29;20200;-86
2023/08/24 22:51:47;;;;;;;6.78;4.82;;;18.40;99.90;;;;;;10209179;29;20231;-85
2023/08/24 22:56:49;;;;;;;6.90;4.97;;;18.30;99.90;;;;;;10196105;29;20215;-84
2023/08/24 23:01:52;;;;;;;8.32;5.75;;;18.30;99.90;;;;;;10212872;29;20203;-84
2023/08/24 23:06:57;;;;;;;3.33;3.03;;;18.60;99.90;;;;;;10213173;29;20188;-85
2023/08/24 23:12:00;;;;;;;4.88;4.38;;;18.50;99.90;;;;;;10213110;29;20207;-85
2023/08/24 23:17:02;;;;;;;8.63;6.10;;;18.90;99.90;;;;;;10171605;29;20208;-85
2023/08/24 23:22:05;;;;;;;3.95;3.65;;;19.10;99.90;;;;;;10116284;29;20711;-86
2023/08/24 23:27:08;;;;;;;3.22;2.92;;;19.10;99.90;;;;;;10133066;29;20711;-85
2023/08/24 23:32:10;;;;;;;10.82;5.82;;;19.50;99.90;;;;;;10132953;29;20561;-85
2023/08/24 23:37:13;;;;;;;11.63;5.35;;;19.60;99.90;;;;;;10174426;29;20235;-85
2023/08/24 23:42:17;;;;;;;6.60;5.47;;;19.10;99.90;;;;;;10178744;29;20220;-86
2023/08/24 23:47:20;;;;;;;5.22;4.20;;;19.00;99.90;;;;;;10161565;29;20235;-86
2023/08/24 23:52:22;;;;;;;4.97;3.90;;;19.00;99.90;;;;;;10178510;29;20742;-85
2023/08/24 23:57:25;;;;;;;9.57;6.10;;;19.00;99.90;;;;;;10176170;29;20195;-85
